sensor_id;sensor_type;location;lat;lon;timestamp;temperature;humidity
23562;DHT22;11959;49.418;8.728;2023-04-06T00:00:47;2.80;99.90
23562;DHT22;11959;49.418;8.728;2023-04-06T00:03:13;2.70;99.90
23562;DHT22;11959;49.418;8.728;2023-04-06T00:05:38;2.70;99.90
23562;DHT22;11959;49.418;8.728;2023-04-06T00:08:04;2.70;99.90
23562;DHT22;11959;49.418;8.728;2023-04-06T00:10:30;2.70;99.90
23562;DHT22;11959;49.418;8.728;2023-04-06T00:12:57;2.60;99.90
23562;DHT22;11959;49.418;8.728;2023-04-06T00:15:23;2.60;99.90
23562;DHT22;11959;49.418;8.728;2023-04-06T00:17:49;2.60;99.90
23562;DHT22;11959;49.418;8.728;2023-04-06T00:20:15;2.70;99.90
23562;DHT22;11959;49.418;8.728;2023-04-06T00:22:41;2.60;99.90
23562;DHT22;11959;49.418;8.728;2023-04-06T00:25:07;2.70;99.90
23562;DHT22;11959;49.418;8.728;2023-04-06T00:27:33;2.60;99.90
23562;DHT22;11959;49.418;8.728;2023-04-06T00:29:59;2.70;99.90
23562;DHT22;11959;49.418;8.728;2023-04-06T00:32:24;2.70;99.90
23562;DHT22;11959;49.418;8.728;2023-04-06T00:34:50;2.70;99.90
23562;DHT22;11959;49.418;8.728;2023-04-06T00:37:16;2.60;99.90
23562;DHT22;11959;49.418;8.728;2023-04-06T00:39:42;2.70;99.90
23562;DHT22;11959;49.418;8.728;2023-04-06T00:42:11;2.70;99.90
23562;DHT22;11959;49.418;8.728;2023-04-06T00:44:43;2.70;99.90
23562;DHT22;11959;49.418;8.728;2023-04-06T00:47:09;2.60;99.90
23562;DHT22;11959;49.418;8.728;2023-04-06T00:49:35;2.60;99.90
23562;DHT22;11959;49.418;8.728;2023-04-06T00:52:01;2.70;99.90
23562;DHT22;11959;49.418;8.728;2023-04-06T00:54:28;2.80;99.90
23562;DHT22;11959;49.418;8.728;2023-04-06T00:56:53;2.80;99.90
23562;DHT22;11959;49.418;8.728;2023-04-06T00:59:20;2.90;99.90
23562;DHT22;11959;49.418;8.728;2023-04-06T01:01:46;2.90;99.90
23562;DHT22;11959;49.418;8.728;2023-04-06T01:04:11;2.90;99.90
23562;DHT22;11959;49.418;8.728;2023-04-06T01:06:37;3.00;99.90
23562;DHT22;11959;49.418;8.728;2023-04-06T01:09:03;3.00;99.90
23562;DHT22;11959;49.418;8.728;2023-04-06T01:11:28;2.90;99.90
23562;DHT22;11959;49.418;8.728;2023-04-06T01:13:55;2.90;99.90
23562;DHT22;11959;49.418;8.728;2023-04-06T01:16:20;2.90;99.90
23562;DHT22;11959;49.418;8.728;2023-04-06T01:18:46;2.90;99.90
23562;DHT22;11959;49.418;8.728;2023-04-06T01:21:12;2.90;99.90
23562;DHT22;11959;49.418;8.728;2023-04-06T01:23:49;2.90;99.90
23562;DHT22;11959;49.418;8.728;2023-04-06T01:26:15;2.90;99.90
23562;DHT22;11959;49.418;8.728;2023-04-06T01:28:41;2.90;99.90
23562;DHT22;11959;49.418;8.728;2023-04-06T01:31:08;2.80;99.90
23562;DHT22;11959;49.418;8.728;2023-04-06T01:33:34;2.80;99.90
23562;DHT22;11959;49.418;8.728;2023-04-06T01:36:00;2.80;99.90
23562;DHT22;11959;49.418;8.728;2023-04-06T01:38:26;2.80;99.90
23562;DHT22;11959;49.418;8.728;2023-04-06T01:40:53;2.80;99.90
23562;DHT22;11959;49.418;8.728;2023-04-06T01:43:19;2.70;99.90
23562;DHT22;11959;49.418;8.728;2023-04-06T01:45:44;2.70;99.90
23562;DHT22;11959;49.418;8.728;2023-04-06T01:48:10;2.60;99.90
23562;DHT22;11959;49.418;8.728;2023-04-06T01:50:35;2.50;99.90
23562;DHT22;11959;49.418;8.728;2023-04-06T01:53:01;2.50;99.90
23562;DHT22;11959;49.418;8.728;2023-04-06T01:55:27;2.50;99.90
23562;DHT22;11959;49.418;8.728;2023-04-06T01:57:53;2.40;99.90
23562;DHT22;11959;49.418;8.728;2023-04-06T02:00:18;2.40;99.90
23562;DHT22;11959;49.418;8.728;2023-04-06T02:02:44;2.30;99.90
23562;DHT22;11959;49.418;8.728;2023-04-06T02:05:10;2.30;99.90
23562;DHT22;11959;49.418;8.728;2023-04-06T02:07:36;2.20;99.90
23562;DHT22;11959;49.418;8.728;2023-04-06T02:10:02;2.20;99.90
23562;DHT22;11959;49.418;8.728;2023-04-06T02:12:28;2.10;99.90
23562;DHT22;11959;49.418;8.728;2023-04-06T02:14:53;2.10;99.90
23562;DHT22;11959;49.418;8.728;2023-04-06T02:17:19;2.10;99.90
23562;DHT22;11959;49.418;8.728;2023-04-06T02:19:44;2.10;99.90
23562;DHT22;11959;49.418;8.728;2023-04-06T02:22:10;2.10;99.90
23562;DHT22;11959;49.418;8.728;2023-04-06T02:24:36;2.10;99.90
23562;DHT22;11959;49.418;8.728;2023-04-06T02:27:02;2.00;99.90
23562;DHT22;11959;49.418;8.728;2023-04-06T02:29:27;2.00;99.90
23562;DHT22;11959;49.418;8.728;2023-04-06T02:31:53;2.00;99.90
23562;DHT22;11959;49.418;8.728;2023-04-06T02:34:19;2.00;99.90
23562;DHT22;11959;49.418;8.728;2023-04-06T02:36:45;1.90;99.90
23562;DHT22;11959;49.418;8.728;2023-04-06T02:39:11;1.90;99.90
23562;DHT22;11959;49.418;8.728;2023-04-06T02:41:37;1.90;99.90
23562;DHT22;11959;49.418;8.728;2023-04-06T02:44:03;1.80;99.90
23562;DHT22;11959;49.418;8.728;2023-04-06T02:46:28;1.90;99.90
23562;DHT22;11959;49.418;8.728;2023-04-06T02:48:54;1.90;99.90
23562;DHT22;11959;49.418;8.728;2023-04-06T02:51:20;1.80;99.90
23562;DHT22;11959;49.418;8.728;2023-04-06T02:53:46;1.80;99.90
23562;DHT22;11959;49.418;8.728;2023-04-06T02:56:12;1.80;99.90
23562;DHT22;11959;49.418;8.728;2023-04-06T02:58:37;1.80;99.90
23562;DHT22;11959;49.418;8.728;2023-04-06T03:01:03;1.70;99.90
23562;DHT22;11959;49.418;8.728;2023-04-06T03:03:29;1.70;99.90
23562;DHT22;11959;49.418;8.728;2023-04-06T03:05:55;1.70;99.90
23562;DHT22;11959;49.418;8.728;2023-04-06T03:08:24;1.80;99.90
23562;DHT22;11959;49.418;8.728;2023-04-06T03:10:50;1.70;99.90
23562;DHT22;11959;49.418;8.728;2023-04-06T03:13:16;1.70;99.90
23562;DHT22;11959;49.418;8.728;2023-04-06T03:15:42;1.70;99.90
23562;DHT22;11959;49.418;8.728;2023-04-06T03:18:07;1.70;99.90
23562;DHT22;11959;49.418;8.728;2023-04-06T03:20:33;1.60;99.90
23562;DHT22;11959;49.418;8.728;2023-04-06T03:22:59;1.70;99.90
23562;DHT22;11959;49.418;8.728;2023-04-06T03:25:25;1.60;99.90
23562;DHT22;11959;49.418;8.728;2023-04-06T03:27:50;1.60;99.90
23562;DHT22;11959;49.418;8.728;2023-04-06T03:30:16;1.60;99.90
23562;DHT22;11959;49.418;8.728;2023-04-06T03:32:43;1.50;99.90
23562;DHT22;11959;49.418;8.728;2023-04-06T03:35:09;1.50;99.90
23562;DHT22;11959;49.418;8.728;2023-04-06T03:37:35;1.50;99.90
23562;DHT22;11959;49.418;8.728;2023-04-06T03:40:01;1.50;99.90
23562;DHT22;11959;49.418;8.728;2023-04-06T03:42:28;1.50;99.90
23562;DHT22;11959;49.418;8.728;2023-04-06T03:44:53;1.50;99.90
23562;DHT22;11959;49.418;8.728;2023-04-06T03:47:19;1.50;99.90
23562;DHT22;11959;49.418;8.728;2023-04-06T03:49:45;1.40;99.90
23562;DHT22;11959;49.418;8.728;2023-04-06T03:52:11;1.40;99.90
23562;DHT22;11959;49.418;8.728;2023-04-06T03:54:37;1.40;99.90
23562;DHT22;11959;49.418;8.728;2023-04-06T03:57:03;1.40;99.90
23562;DHT22;11959;49.418;8.728;2023-04-06T03:59:29;1.40;99.90
23562;DHT22;11959;49.418;8.728;2023-04-06T04:01:54;1.40;99.90
23562;DHT22;11959;49.418;8.728;2023-04-06T04:04:20;1.40;99.90
23562;DHT22;11959;49.418;8.728;2023-04-06T04:06:46;1.40;99.90
23562;DHT22;11959;49.418;8.728;2023-04-06T04:09:12;1.30;99.90
23562;DHT22;11959;49.418;8.728;2023-04-06T04:11:37;1.30;99.90
23562;DHT22;11959;49.418;8.728;2023-04-06T04:14:03;1.30;99.90
23562;DHT22;11959;49.418;8.728;2023-04-06T04:16:29;1.30;99.90
23562;DHT22;11959;49.418;8.728;2023-04-06T04:18:55;1.30;99.90
23562;DHT22;11959;49.418;8.728;2023-04-06T04:21:20;1.20;99.90
23562;DHT22;11959;49.418;8.728;2023-04-06T04:23:46;1.20;99.90
23562;DHT22;11959;49.418;8.728;2023-04-06T04:26:12;1.20;99.90
23562;DHT22;11959;49.418;8.728;2023-04-06T04:28:37;1.20;99.90
23562;DHT22;11959;49.418;8.728;2023-04-06T04:31:03;1.20;99.90
23562;DHT22;11959;49.418;8.728;2023-04-06T04:33:29;1.20;99.90
23562;DHT22;11959;49.418;8.728;2023-04-06T04:35:54;1.30;99.90
23562;DHT22;11959;49.418;8.728;2023-04-06T04:38:20;1.20;99.90
23562;DHT22;11959;49.418;8.728;2023-04-06T04:40:46;1.30;99.90
23562;DHT22;11959;49.418;8.728;2023-04-06T04:43:13;1.30;99.90
23562;DHT22;11959;49.418;8.728;2023-04-06T04:45:38;1.20;99.90
23562;DHT22;11959;49.418;8.728;2023-04-06T04:48:04;1.10;99.90
23562;DHT22;11959;49.418;8.728;2023-04-06T04:50:31;1.10;99.90
23562;DHT22;11959;49.418;8.728;2023-04-06T04:52:57;1.20;99.90
23562;DHT22;11959;49.418;8.728;2023-04-06T04:55:22;1.10;99.90
23562;DHT22;11959;49.418;8.728;2023-04-06T04:57:48;1.10;99.90
23562;DHT22;11959;49.418;8.728;2023-04-06T05:00:14;1.10;99.90
23562;DHT22;11959;49.418;8.728;2023-04-06T05:02:40;1.10;99.90
23562;DHT22;11959;49.418;8.728;2023-04-06T05:05:06;1.10;99.90
23562;DHT22;11959;49.418;8.728;2023-04-06T05:07:32;1.10;99.90
23562;DHT22;11959;49.418;8.728;2023-04-06T05:09:59;1.10;99.90
23562;DHT22;11959;49.418;8.728;2023-04-06T05:12:24;1.10;99.90
23562;DHT22;11959;49.418;8.728;2023-04-06T05:14:53;1.10;99.90
23562;DHT22;11959;49.418;8.728;2023-04-06T05:17:18;1.10;99.90
23562;DHT22;11959;49.418;8.728;2023-04-06T05:19:44;1.20;99.90
23562;DHT22;11959;49.418;8.728;2023-04-06T05:22:10;1.20;99.90
23562;DHT22;11959;49.418;8.728;2023-04-06T05:24:36;1.20;99.90
23562;DHT22;11959;49.418;8.728;2023-04-06T05:27:02;1.20;99.90
23562;DHT22;11959;49.418;8.728;2023-04-06T05:29:29;1.20;99.90
23562;DHT22;11959;49.418;8.728;2023-04-06T05:31:54;1.20;99.90
23562;DHT22;11959;49.418;8.728;2023-04-06T05:34:20;1.20;99.90
23562;DHT22;11959;49.418;8.728;2023-04-06T05:36:46;1.30;99.90
23562;DHT22;11959;49.418;8.728;2023-04-06T05:39:12;1.30;99.90
23562;DHT22;11959;49.418;8.728;2023-04-06T05:41:38;1.30;99.90
23562;DHT22;11959;49.418;8.728;2023-04-06T05:44:03;1.30;99.90
23562;DHT22;11959;49.418;8.728;2023-04-06T05:46:29;1.30;99.90
23562;DHT22;11959;49.418;8.728;2023-04-06T05:48:55;1.40;99.90
23562;DHT22;11959;49.418;8.728;2023-04-06T05:51:21;1.40;99.90
23562;DHT22;11959;49.418;8.728;2023-04-06T05:53:47;1.40;99.90
23562;DHT22;11959;49.418;8.728;2023-04-06T05:56:12;1.40;99.90
23562;DHT22;11959;49.418;8.728;2023-04-06T05:58:38;1.40;99.90
23562;DHT22;11959;49.418;8.728;2023-04-06T06:01:04;1.40;99.90
23562;DHT22;11959;49.418;8.728;2023-04-06T06:03:30;1.50;99.90
23562;DHT22;11959;49.418;8.728;2023-04-06T06:06:03;1.60;99.90
23562;DHT22;11959;49.418;8.728;2023-04-06T06:08:29;1.60;99.90
23562;DHT22;11959;49.418;8.728;2023-04-06T06:10:55;1.60;99.90
23562;DHT22;11959;49.418;8.728;2023-04-06T06:13:22;1.70;99.90
23562;DHT22;11959;49.418;8.728;2023-04-06T06:15:48;1.70;99.90
23562;DHT22;11959;49.418;8.728;2023-04-06T06:18:13;1.70;99.90
23562;DHT22;11959;49.418;8.728;2023-04-06T06:20:39;1.70;99.90
23562;DHT22;11959;49.418;8.728;2023-04-06T06:23:05;1.80;99.90
23562;DHT22;11959;49.418;8.728;2023-04-06T06:25:31;1.80;99.90
23562;DHT22;11959;49.418;8.728;2023-04-06T06:27:57;1.90;99.90
23562;DHT22;11959;49.418;8.728;2023-04-06T06:30:23;1.90;99.90
23562;DHT22;11959;49.418;8.728;2023-04-06T06:32:50;2.00;99.90
23562;DHT22;11959;49.418;8.728;2023-04-06T06:35:16;2.00;99.90
23562;DHT22;11959;49.418;8.728;2023-04-06T06:37:42;2.10;99.90
23562;DHT22;11959;49.418;8.728;2023-04-06T06:40:09;2.20;99.90
23562;DHT22;11959;49.418;8.728;2023-04-06T06:42:35;2.20;99.90
23562;DHT22;11959;49.418;8.728;2023-04-06T06:45:01;2.30;99.90
23562;DHT22;11959;49.418;8.728;2023-04-06T06:47:26;2.40;99.90
23562;DHT22;11959;49.418;8.728;2023-04-06T06:49:52;2.40;99.90
23562;DHT22;11959;49.418;8.728;2023-04-06T06:52:18;2.50;99.90
23562;DHT22;11959;49.418;8.728;2023-04-06T06:54:44;2.60;99.90
23562;DHT22;11959;49.418;8.728;2023-04-06T06:57:10;2.60;99.90
23562;DHT22;11959;49.418;8.728;2023-04-06T06:59:35;2.60;99.90
23562;DHT22;11959;49.418;8.728;2023-04-06T07:02:01;2.70;99.90
23562;DHT22;11959;49.418;8.728;2023-04-06T07:04:26;2.80;99.90
23562;DHT22;11959;49.418;8.728;2023-04-06T07:06:52;2.80;99.90
23562;DHT22;11959;49.418;8.728;2023-04-06T07:09:18;2.90;99.90
23562;DHT22;11959;49.418;8.728;2023-04-06T07:11:44;3.10;99.90
23562;DHT22;11959;49.418;8.728;2023-04-06T07:14:09;3.10;99.90
23562;DHT22;11959;49.418;8.728;2023-04-06T07:16:37;3.10;99.90
23562;DHT22;11959;49.418;8.728;2023-04-06T07:19:02;3.20;99.90
23562;DHT22;11959;49.418;8.728;2023-04-06T07:21:28;3.30;99.90
23562;DHT22;11959;49.418;8.728;2023-04-06T07:23:54;3.30;99.90
23562;DHT22;11959;49.418;8.728;2023-04-06T07:26:20;3.50;99.90
23562;DHT22;11959;49.418;8.728;2023-04-06T07:28:45;3.60;99.90
23562;DHT22;11959;49.418;8.728;2023-04-06T07:31:11;3.60;99.90
23562;DHT22;11959;49.418;8.728;2023-04-06T07:33:37;3.80;99.90
23562;DHT22;11959;49.418;8.728;2023-04-06T07:36:02;3.90;99.90
23562;DHT22;11959;49.418;8.728;2023-04-06T07:38:28;3.90;99.90
23562;DHT22;11959;49.418;8.728;2023-04-06T07:40:54;4.10;99.90
23562;DHT22;11959;49.418;8.728;2023-04-06T07:43:19;4.20;99.90
23562;DHT22;11959;49.418;8.728;2023-04-06T07:45:45;4.40;99.90
23562;DHT22;11959;49.418;8.728;2023-04-06T07:48:11;4.50;99.90
23562;DHT22;11959;49.418;8.728;2023-04-06T07:50:36;4.50;99.90
23562;DHT22;11959;49.418;8.728;2023-04-06T07:53:02;4.70;99.90
23562;DHT22;11959;49.418;8.728;2023-04-06T07:55:28;4.80;99.90
23562;DHT22;11959;49.418;8.728;2023-04-06T07:57:53;4.90;99.90
23562;DHT22;11959;49.418;8.728;2023-04-06T08:00:19;5.00;99.90
23562;DHT22;11959;49.418;8.728;2023-04-06T08:02:45;5.00;99.90
23562;DHT22;11959;49.418;8.728;2023-04-06T08:05:11;5.20;99.90
23562;DHT22;11959;49.418;8.728;2023-04-06T08:07:37;5.30;99.90
23562;DHT22;11959;49.418;8.728;2023-04-06T08:10:03;5.40;99.90
23562;DHT22;11959;49.418;8.728;2023-04-06T08:12:28;5.50;99.90
23562;DHT22;11959;49.418;8.728;2023-04-06T08:14:54;5.60;99.90
23562;DHT22;11959;49.418;8.728;2023-04-06T08:17:20;5.70;99.90
23562;DHT22;11959;49.418;8.728;2023-04-06T08:19:46;5.80;99.90
23562;DHT22;11959;49.418;8.728;2023-04-06T08:22:12;5.90;99.90
23562;DHT22;11959;49.418;8.728;2023-04-06T08:24:37;6.00;99.90
23562;DHT22;11959;49.418;8.728;2023-04-06T08:27:03;6.10;99.90
23562;DHT22;11959;49.418;8.728;2023-04-06T08:29:29;6.20;99.90
23562;DHT22;11959;49.418;8.728;2023-04-06T08:31:54;6.30;99.90
23562;DHT22;11959;49.418;8.728;2023-04-06T08:34:21;6.30;99.90
23562;DHT22;11959;49.418;8.728;2023-04-06T08:36:47;6.40;99.90
23562;DHT22;11959;49.418;8.728;2023-04-06T08:39:12;6.50;99.90
23562;DHT22;11959;49.418;8.728;2023-04-06T08:41:41;6.60;99.90
23562;DHT22;11959;49.418;8.728;2023-04-06T08:44:07;6.70;99.90
23562;DHT22;11959;49.418;8.728;2023-04-06T08:46:32;6.80;99.90
23562;DHT22;11959;49.418;8.728;2023-04-06T08:49:00;6.90;99.90
23562;DHT22;11959;49.418;8.728;2023-04-06T08:51:27;6.90;99.90
23562;DHT22;11959;49.418;8.728;2023-04-06T08:53:54;7.00;99.90
23562;DHT22;11959;49.418;8.728;2023-04-06T08:56:21;7.00;99.90
23562;DHT22;11959;49.418;8.728;2023-04-06T08:58:48;7.00;99.90
23562;DHT22;11959;49.418;8.728;2023-04-06T09:01:14;7.10;99.90
23562;DHT22;11959;49.418;8.728;2023-04-06T09:03:42;7.10;99.90
23562;DHT22;11959;49.418;8.728;2023-04-06T09:06:09;7.30;99.90
23562;DHT22;11959;49.418;8.728;2023-04-06T09:08:37;7.40;99.90
23562;DHT22;11959;49.418;8.728;2023-04-06T09:11:03;7.50;99.90
23562;DHT22;11959;49.418;8.728;2023-04-06T09:13:30;7.60;99.90
23562;DHT22;11959;49.418;8.728;2023-04-06T09:16:03;7.70;99.90
23562;DHT22;11959;49.418;8.728;2023-04-06T09:18:33;7.80;99.90
23562;DHT22;11959;49.418;8.728;2023-04-06T09:21:03;7.90;99.90
23562;DHT22;11959;49.418;8.728;2023-04-06T09:23:29;7.90;99.90
23562;DHT22;11959;49.418;8.728;2023-04-06T09:26:15;7.90;99.90
23562;DHT22;11959;49.418;8.728;2023-04-06T09:28:53;7.90;99.90
23562;DHT22;11959;49.418;8.728;2023-04-06T09:33:47;8.10;99.90
23562;DHT22;11959;49.418;8.728;2023-04-06T09:36:13;8.20;99.90
23562;DHT22;11959;49.418;8.728;2023-04-06T09:38:58;8.20;99.90
23562;DHT22;11959;49.418;8.728;2023-04-06T09:41:34;8.40;99.90
23562;DHT22;11959;49.418;8.728;2023-04-06T09:44:11;8.50;99.90
23562;DHT22;11959;49.418;8.728;2023-04-06T09:46:44;8.70;99.90
23562;DHT22;11959;49.418;8.728;2023-04-06T09:49:11;8.90;99.90
23562;DHT22;11959;49.418;8.728;2023-04-06T09:51:49;9.10;99.90
23562;DHT22;11959;49.418;8.728;2023-04-06T09:54:22;9.50;99.90
23562;DHT22;11959;49.418;8.728;2023-04-06T10:02:02;10.00;99.90
23562;DHT22;11959;49.418;8.728;2023-04-06T10:06:59;10.40;99.10
23562;DHT22;11959;49.418;8.728;2023-04-06T10:09:29;10.60;98.10
23562;DHT22;11959;49.418;8.728;2023-04-06T10:12:05;10.70;97.40
23562;DHT22;11959;49.418;8.728;2023-04-06T10:14:33;10.70;97.60
23562;DHT22;11959;49.418;8.728;2023-04-06T10:17:02;10.90;96.90
23562;DHT22;11959;49.418;8.728;2023-04-06T10:19:31;11.00;96.10
23562;DHT22;11959;49.418;8.728;2023-04-06T10:22:00;11.10;94.70
23562;DHT22;11959;49.418;8.728;2023-04-06T10:24:28;11.00;93.80
23562;DHT22;11959;49.418;8.728;2023-04-06T10:26:57;11.20;94.20
23562;DHT22;11959;49.418;8.728;2023-04-06T10:29:23;11.30;91.80
23562;DHT22;11959;49.418;8.728;2023-04-06T10:31:49;11.40;93.00
23562;DHT22;11959;49.418;8.728;2023-04-06T10:34:15;11.40;92.90
23562;DHT22;11959;49.418;8.728;2023-04-06T10:36:41;11.40;92.20
23562;DHT22;11959;49.418;8.728;2023-04-06T10:39:06;11.60;91.90
23562;DHT22;11959;49.418;8.728;2023-04-06T10:41:41;11.80;92.80
23562;DHT22;11959;49.418;8.728;2023-04-06T10:44:06;11.70;91.70
23562;DHT22;11959;49.418;8.728;2023-04-06T10:46:33;11.80;91.70
23562;DHT22;11959;49.418;8.728;2023-04-06T10:49:12;12.00;92.30
23562;DHT22;11959;49.418;8.728;2023-04-06T10:51:38;12.10;92.10
23562;DHT22;11959;49.418;8.728;2023-04-06T10:54:06;12.20;92.20
23562;DHT22;11959;49.418;8.728;2023-04-06T10:56:33;12.20;91.20
23562;DHT22;11959;49.418;8.728;2023-04-06T10:59:01;12.30;90.30
23562;DHT22;11959;49.418;8.728;2023-04-06T11:01:27;12.40;90.30
23562;DHT22;11959;49.418;8.728;2023-04-06T11:03:54;12.40;88.90
23562;DHT22;11959;49.418;8.728;2023-04-06T11:06:28;12.40;90.60
23562;DHT22;11959;49.418;8.728;2023-04-06T11:08:56;12.50;90.00
23562;DHT22;11959;49.418;8.728;2023-04-06T11:11:23;12.50;87.60
23562;DHT22;11959;49.418;8.728;2023-04-06T11:13:55;12.40;89.90
23562;DHT22;11959;49.418;8.728;2023-04-06T11:16:31;12.60;88.30
23562;DHT22;11959;49.418;8.728;2023-04-06T11:21:41;12.80;88.10
23562;DHT22;11959;49.418;8.728;2023-04-06T11:24:16;12.60;87.70
23562;DHT22;11959;49.418;8.728;2023-04-06T11:26:47;12.70;86.00
23562;DHT22;11959;49.418;8.728;2023-04-06T11:29:16;12.80;86.80
23562;DHT22;11959;49.418;8.728;2023-04-06T11:31:50;12.80;85.70
23562;DHT22;11959;49.418;8.728;2023-04-06T11:34:17;12.80;88.00
23562;DHT22;11959;49.418;8.728;2023-04-06T11:36:45;12.80;88.90
23562;DHT22;11959;49.418;8.728;2023-04-06T11:39:12;12.80;87.90
23562;DHT22;11959;49.418;8.728;2023-04-06T11:41:38;12.80;88.50
23562;DHT22;11959;49.418;8.728;2023-04-06T11:44:05;12.90;88.20
23562;DHT22;11959;49.418;8.728;2023-04-06T11:46:31;13.10;88.00
23562;DHT22;11959;49.418;8.728;2023-04-06T11:49:01;13.10;85.70
23562;DHT22;11959;49.418;8.728;2023-04-06T11:51:27;13.10;86.10
23562;DHT22;11959;49.418;8.728;2023-04-06T11:53:54;13.10;85.30
23562;DHT22;11959;49.418;8.728;2023-04-06T11:56:27;13.20;87.20
23562;DHT22;11959;49.418;8.728;2023-04-06T11:58:57;13.40;86.20
23562;DHT22;11959;49.418;8.728;2023-04-06T12:01:25;13.30;88.50
23562;DHT22;11959;49.418;8.728;2023-04-06T12:03:52;13.30;87.80
23562;DHT22;11959;49.418;8.728;2023-04-06T12:06:18;13.30;87.30
23562;DHT22;11959;49.418;8.728;2023-04-06T12:08:44;13.40;85.20
23562;DHT22;11959;49.418;8.728;2023-04-06T12:11:10;13.40;85.50
23562;DHT22;11959;49.418;8.728;2023-04-06T12:13:36;13.30;86.30
23562;DHT22;11959;49.418;8.728;2023-04-06T12:16:02;13.30;85.80
23562;DHT22;11959;49.418;8.728;2023-04-06T12:18:28;13.30;86.40
23562;DHT22;11959;49.418;8.728;2023-04-06T12:20:53;13.40;83.50
23562;DHT22;11959;49.418;8.728;2023-04-06T12:23:19;13.30;83.30
23562;DHT22;11959;49.418;8.728;2023-04-06T12:25:45;13.40;85.00
23562;DHT22;11959;49.418;8.728;2023-04-06T12:28:11;13.50;85.40
23562;DHT22;11959;49.418;8.728;2023-04-06T12:30:37;13.70;81.70
23562;DHT22;11959;49.418;8.728;2023-04-06T12:33:03;13.80;84.00
23562;DHT22;11959;49.418;8.728;2023-04-06T12:35:32;13.50;83.30
23562;DHT22;11959;49.418;8.728;2023-04-06T12:37:58;13.50;83.50
23562;DHT22;11959;49.418;8.728;2023-04-06T12:40:24;13.60;81.40
23562;DHT22;11959;49.418;8.728;2023-04-06T12:42:49;13.50;81.40
23562;DHT22;11959;49.418;8.728;2023-04-06T12:45:15;13.60;83.60
23562;DHT22;11959;49.418;8.728;2023-04-06T12:47:41;13.60;80.70
23562;DHT22;11959;49.418;8.728;2023-04-06T12:50:07;13.60;81.90
23562;DHT22;11959;49.418;8.728;2023-04-06T12:52:33;13.80;82.50
23562;DHT22;11959;49.418;8.728;2023-04-06T12:55:03;13.90;81.90
23562;DHT22;11959;49.418;8.728;2023-04-06T12:57:30;13.90;80.70
23562;DHT22;11959;49.418;8.728;2023-04-06T12:59:57;14.10;82.90
23562;DHT22;11959;49.418;8.728;2023-04-06T13:02:23;14.10;80.90
23562;DHT22;11959;49.418;8.728;2023-04-06T13:04:49;14.00;78.70
23562;DHT22;11959;49.418;8.728;2023-04-06T13:07:15;14.10;80.60
23562;DHT22;11959;49.418;8.728;2023-04-06T13:09:40;14.00;81.20
23562;DHT22;11959;49.418;8.728;2023-04-06T13:12:06;13.90;78.50
23562;DHT22;11959;49.418;8.728;2023-04-06T13:14:32;14.10;78.40
23562;DHT22;11959;49.418;8.728;2023-04-06T13:16:57;14.10;78.70
23562;DHT22;11959;49.418;8.728;2023-04-06T13:19:23;13.90;78.50
23562;DHT22;11959;49.418;8.728;2023-04-06T13:21:49;13.90;77.00
23562;DHT22;11959;49.418;8.728;2023-04-06T13:24:14;14.00;78.30
23562;DHT22;11959;49.418;8.728;2023-04-06T13:26:40;14.10;78.80
23562;DHT22;11959;49.418;8.728;2023-04-06T13:29:06;14.10;79.80
23562;DHT22;11959;49.418;8.728;2023-04-06T13:31:32;14.00;77.60
23562;DHT22;11959;49.418;8.728;2023-04-06T13:33:57;14.10;77.50
23562;DHT22;11959;49.418;8.728;2023-04-06T13:36:23;14.20;77.60
23562;DHT22;11959;49.418;8.728;2023-04-06T13:38:49;14.30;77.40
23562;DHT22;11959;49.418;8.728;2023-04-06T13:41:21;14.10;76.50
23562;DHT22;11959;49.418;8.728;2023-04-06T13:43:48;14.10;76.10
23562;DHT22;11959;49.418;8.728;2023-04-06T13:46:13;14.00;76.00
23562;DHT22;11959;49.418;8.728;2023-04-06T13:48:39;14.00;76.50
23562;DHT22;11959;49.418;8.728;2023-04-06T13:51:12;13.90;77.50
23562;DHT22;11959;49.418;8.728;2023-04-06T13:53:38;13.90;78.60
23562;DHT22;11959;49.418;8.728;2023-04-06T13:56:04;14.00;75.60
23562;DHT22;11959;49.418;8.728;2023-04-06T13:58:30;14.00;77.60
23562;DHT22;11959;49.418;8.728;2023-04-06T14:01:05;13.90;76.70
23562;DHT22;11959;49.418;8.728;2023-04-06T14:03:31;13.80;76.60
23562;DHT22;11959;49.418;8.728;2023-04-06T14:05:57;13.80;76.90
23562;DHT22;11959;49.418;8.728;2023-04-06T14:08:23;13.90;77.80
23562;DHT22;11959;49.418;8.728;2023-04-06T14:10:48;13.90;77.60
23562;DHT22;11959;49.418;8.728;2023-04-06T14:13:14;14.00;77.20
23562;DHT22;11959;49.418;8.728;2023-04-06T14:15:41;14.00;76.80
23562;DHT22;11959;49.418;8.728;2023-04-06T14:18:07;14.10;76.90
23562;DHT22;11959;49.418;8.728;2023-04-06T14:20:33;14.00;75.80
23562;DHT22;11959;49.418;8.728;2023-04-06T14:23:02;14.10;75.10
23562;DHT22;11959;49.418;8.728;2023-04-06T14:25:28;14.00;76.00
23562;DHT22;11959;49.418;8.728;2023-04-06T14:27:56;13.90;75.00
23562;DHT22;11959;49.418;8.728;2023-04-06T14:30:22;14.00;75.00
23562;DHT22;11959;49.418;8.728;2023-04-06T14:32:48;14.00;76.40
23562;DHT22;11959;49.418;8.728;2023-04-06T14:35:13;14.00;75.30
23562;DHT22;11959;49.418;8.728;2023-04-06T14:37:39;14.10;77.50
23562;DHT22;11959;49.418;8.728;2023-04-06T14:40:05;14.00;76.20
23562;DHT22;11959;49.418;8.728;2023-04-06T14:42:31;14.00;75.70
23562;DHT22;11959;49.418;8.728;2023-04-06T14:44:57;13.90;76.20
23562;DHT22;11959;49.418;8.728;2023-04-06T14:47:23;13.80;77.00
23562;DHT22;11959;49.418;8.728;2023-04-06T14:49:51;13.90;76.10
23562;DHT22;11959;49.418;8.728;2023-04-06T14:52:17;13.80;78.30
23562;DHT22;11959;49.418;8.728;2023-04-06T14:54:43;13.80;77.30
23562;DHT22;11959;49.418;8.728;2023-04-06T14:57:08;13.80;77.50
23562;DHT22;11959;49.418;8.728;2023-04-06T14:59:34;13.70;76.20
23562;DHT22;11959;49.418;8.728;2023-04-06T15:02:01;13.70;76.50
23562;DHT22;11959;49.418;8.728;2023-04-06T15:04:28;13.70;79.00
23562;DHT22;11959;49.418;8.728;2023-04-06T15:06:54;13.60;78.10
23562;DHT22;11959;49.418;8.728;2023-04-06T15:09:20;13.60;79.10
23562;DHT22;11959;49.418;8.728;2023-04-06T15:11:46;13.60;77.20
23562;DHT22;11959;49.418;8.728;2023-04-06T15:14:12;13.60;77.70
23562;DHT22;11959;49.418;8.728;2023-04-06T15:16:37;13.50;77.00
23562;DHT22;11959;49.418;8.728;2023-04-06T15:19:03;13.50;78.60
23562;DHT22;11959;49.418;8.728;2023-04-06T15:21:28;13.50;79.50
23562;DHT22;11959;49.418;8.728;2023-04-06T15:23:55;13.40;77.50
23562;DHT22;11959;49.418;8.728;2023-04-06T15:26:22;13.50;79.10
23562;DHT22;11959;49.418;8.728;2023-04-06T15:28:47;13.30;77.50
23562;DHT22;11959;49.418;8.728;2023-04-06T15:31:17;13.20;77.90
23562;DHT22;11959;49.418;8.728;2023-04-06T15:33:43;13.30;79.30
23562;DHT22;11959;49.418;8.728;2023-04-06T15:36:35;13.30;77.40
23562;DHT22;11959;49.418;8.728;2023-04-06T15:39:01;13.30;79.50
23562;DHT22;11959;49.418;8.728;2023-04-06T15:41:27;13.30;79.70
23562;DHT22;11959;49.418;8.728;2023-04-06T15:43:54;13.30;79.20
23562;DHT22;11959;49.418;8.728;2023-04-06T15:46:20;13.30;81.30
23562;DHT22;11959;49.418;8.728;2023-04-06T15:48:46;13.20;79.40